createdAt,value
2023-03-27T00:00:44.885Z,43.02
2023-03-27T00:01:44.881Z,41.25
2023-03-27T00:02:44.942Z,42.06
2023-03-27T00:03:45.052Z,42.38
2023-03-27T00:04:44.870Z,42.54
2023-03-27T00:05:44.839Z,41.25
2023-03-27T00:06:44.838Z,42.70
2023-03-27T00:07:44.816Z,41.89
2023-03-27T00:08:44.827Z,42.54
2023-03-27T00:09:44.828Z,42.54
2023-03-27T00:10:44.783Z,43.02
2023-03-27T00:11:44.792Z,60.91
2023-03-27T00:12:44.765Z,50.27
2023-03-27T00:13:50.138Z,43.18
2023-03-27T00:14:45.737Z,42.22
2023-03-27T00:15:44.733Z,42.06
2023-03-27T00:16:44.761Z,41.89
2023-03-27T00:17:44.731Z,42.38
2023-03-27T00:18:44.708Z,43.02
2023-03-27T00:19:44.691Z,42.70
2023-03-27T00:20:44.705Z,42.38
2023-03-27T00:21:44.662Z,42.38
2023-03-27T00:22:44.652Z,43.02
2023-03-27T00:23:44.660Z,42.38
2023-03-27T00:24:44.632Z,41.57
2023-03-27T00:25:44.625Z,42.70
2023-03-27T00:26:44.718Z,41.73
2023-03-27T00:27:44.642Z,42.06
2023-03-27T00:28:44.663Z,42.22
2023-03-27T00:29:44.627Z,42.86
2023-03-27T00:30:44.611Z,42.54
2023-03-27T00:31:44.561Z,41.89
2023-03-27T00:32:44.650Z,41.73
2023-03-27T00:33:44.535Z,41.09
2023-03-27T00:34:44.533Z,41.57
2023-03-27T00:35:44.548Z,41.41
2023-03-27T00:36:44.508Z,41.89
2023-03-27T00:37:44.500Z,43.02
2023-03-27T00:38:44.490Z,42.70
2023-03-27T00:39:44.485Z,42.86
2023-03-27T00:40:44.489Z,41.41
2023-03-27T00:41:44.451Z,41.73
2023-03-27T00:42:44.493Z,42.38
2023-03-27T00:43:44.430Z,42.54
2023-03-27T00:44:44.420Z,41.25
2023-03-27T00:45:44.413Z,41.89
2023-03-27T00:46:44.413Z,42.06
2023-03-27T00:47:44.437Z,43.02
2023-03-27T00:48:44.368Z,41.73
2023-03-27T00:49:44.374Z,41.57
2023-03-27T00:50:44.362Z,41.57
2023-03-27T00:51:44.385Z,41.89
2023-03-27T00:52:44.339Z,41.89
2023-03-27T00:53:44.329Z,42.54
2023-03-27T00:54:44.331Z,43.51
2023-03-27T00:55:44.341Z,43.18
2023-03-27T00:56:44.311Z,43.18
2023-03-27T00:57:44.280Z,43.83
2023-03-27T00:58:44.271Z,43.83
2023-03-27T00:59:44.275Z,43.02
2023-03-27T01:00:44.249Z,42.38
2023-03-27T01:01:44.296Z,42.06
2023-03-27T01:02:44.291Z,42.06
2023-03-27T01:03:44.351Z,42.22
2023-03-27T01:04:44.212Z,41.73
2023-03-27T01:05:44.199Z,42.06
2023-03-27T01:06:44.188Z,41.73
2023-03-27T01:08:00.020Z,43.51
2023-03-27T01:08:45.160Z,42.70
2023-03-27T01:09:44.159Z,42.54
2023-03-27T01:10:44.137Z,42.86
2023-03-27T01:11:44.131Z,42.22
2023-03-27T01:12:44.109Z,46.89
2023-03-27T01:13:44.121Z,60.75
2023-03-27T01:14:44.112Z,42.38
2023-03-27T01:15:44.097Z,42.06
2023-03-27T01:16:44.083Z,42.86
2023-03-27T01:17:44.091Z,57.69
2023-03-27T01:18:44.049Z,57.69
2023-03-27T01:19:44.055Z,40.77
2023-03-27T01:20:44.031Z,41.73
2023-03-27T01:21:44.036Z,41.73
2023-03-27T01:22:44.056Z,42.86
2023-03-27T01:23:59.734Z,41.89
2023-03-27T01:24:45.001Z,42.22
2023-03-27T01:25:43.983Z,42.86
2023-03-27T01:26:43.967Z,42.38
2023-03-27T01:27:43.974Z,42.22
2023-03-27T01:28:43.981Z,42.54
2023-03-27T01:29:43.958Z,42.22
2023-03-27T01:30:43.921Z,41.57
2023-03-27T01:31:43.946Z,42.22
2023-03-27T01:32:43.914Z,41.57
2023-03-27T01:33:43.897Z,42.38
2023-03-27T01:34:43.909Z,60.26
2023-03-27T01:35:43.960Z,43.99
2023-03-27T01:36:43.861Z,43.02
2023-03-27T01:37:43.857Z,42.86
2023-03-27T01:38:43.834Z,58.33
2023-03-27T01:39:43.843Z,41.89
2023-03-27T01:40:43.822Z,41.73
2023-03-27T01:41:43.813Z,42.54
2023-03-27T01:42:43.809Z,42.86
2023-03-27T01:43:43.805Z,47.53
2023-03-27T01:44:45.136Z,42.22
2023-03-27T01:45:43.763Z,42.70
2023-03-27T01:46:43.811Z,59.46
2023-03-27T01:47:43.792Z,64.13
2023-03-27T01:48:43.748Z,52.53
2023-03-27T01:49:43.723Z,41.89
2023-03-27T01:50:43.736Z,41.89
2023-03-27T01:51:43.709Z,44.31
2023-03-27T01:52:43.702Z,46.41
2023-03-27T01:53:43.682Z,60.91
2023-03-27T01:54:43.672Z,48.34
2023-03-27T01:55:43.677Z,46.41
2023-03-27T01:56:43.712Z,42.70
2023-03-27T01:57:49.289Z,42.70
2023-03-27T01:58:44.644Z,42.38
2023-03-27T01:59:43.623Z,42.22
2023-03-27T02:00:51.369Z,42.22
2023-03-27T02:01:44.696Z,41.89
2023-03-27T02:02:43.637Z,41.89
2023-03-27T02:03:43.579Z,41.89
2023-03-27T02:04:43.626Z,42.70
2023-03-27T02:05:43.579Z,41.89
2023-03-27T02:06:43.556Z,42.70
2023-03-27T02:07:43.534Z,46.41
2023-03-27T02:08:43.539Z,60.10
2023-03-27T02:09:43.517Z,60.91
2023-03-27T02:10:43.534Z,55.75
2023-03-27T02:11:43.488Z,56.72
2023-03-27T02:12:43.492Z,42.54
2023-03-27T02:13:43.475Z,59.94
2023-03-27T02:14:43.494Z,42.54
2023-03-27T02:15:43.505Z,41.57
2023-03-27T02:16:43.462Z,42.06
2023-03-27T02:17:43.487Z,41.41
2023-03-27T02:18:43.522Z,41.73
2023-03-27T02:19:43.430Z,42.22
2023-03-27T02:20:43.419Z,43.18
2023-03-27T02:21:43.387Z,42.38
2023-03-27T02:22:43.393Z,43.34
2023-03-27T02:23:43.377Z,42.22
2023-03-27T02:24:43.474Z,42.86
2023-03-27T02:25:43.377Z,42.54
2023-03-27T02:26:43.357Z,42.70
2023-03-27T02:27:43.328Z,42.38
2023-03-27T02:28:43.323Z,62.20
2023-03-27T02:29:43.306Z,42.70
2023-03-27T02:30:43.328Z,42.54
2023-03-27T02:31:43.344Z,41.73
2023-03-27T02:32:43.469Z,42.54
2023-03-27T02:33:43.270Z,42.70
2023-03-27T02:34:43.268Z,43.02
2023-03-27T02:35:43.302Z,58.17
2023-03-27T02:36:43.250Z,42.70
2023-03-27T02:37:43.248Z,42.86
2023-03-27T02:38:43.220Z,46.41
2023-03-27T02:39:43.211Z,60.75
2023-03-27T02:40:43.221Z,42.54
2023-03-27T02:41:43.223Z,42.70
2023-03-27T02:42:43.206Z,53.50
2023-03-27T02:43:43.193Z,59.46
2023-03-27T02:44:46.249Z,42.86
2023-03-27T02:45:43.249Z,43.34
2023-03-27T02:46:43.148Z,42.70
2023-03-27T02:47:43.174Z,43.83
2023-03-27T02:48:43.122Z,60.42
2023-03-27T02:49:43.121Z,42.38
2023-03-27T02:50:43.131Z,61.71
2023-03-27T02:51:43.082Z,51.72
2023-03-27T02:52:43.075Z,60.91
2023-03-27T02:53:43.095Z,57.69
2023-03-27T02:54:43.048Z,43.02
2023-03-27T02:55:43.038Z,43.02
2023-03-27T02:56:43.095Z,42.70
2023-03-27T02:57:52.049Z,61.71
2023-03-27T02:58:44.042Z,44.15
2023-03-27T02:59:43.000Z,43.02
2023-03-27T03:00:42.987Z,42.54
2023-03-27T03:01:43.055Z,42.70
2023-03-27T03:02:43.023Z,42.54
2023-03-27T03:03:42.977Z,41.89
2023-03-27T03:04:42.944Z,62.68
2023-03-27T03:05:42.934Z,44.79
2023-03-27T03:06:42.934Z,42.70
2023-03-27T03:07:42.925Z,44.31
2023-03-27T03:08:42.910Z,59.78
2023-03-27T03:09:42.898Z,61.23
2023-03-27T03:10:42.901Z,45.12
2023-03-27T03:11:42.899Z,48.02
2023-03-27T03:12:42.869Z,59.62
2023-03-27T03:13:42.856Z,42.70
2023-03-27T03:14:42.847Z,42.38
2023-03-27T03:15:42.836Z,60.75
2023-03-27T03:16:42.890Z,48.18
2023-03-27T03:17:42.845Z,57.69
2023-03-27T03:18:42.801Z,66.71
2023-03-27T03:19:42.795Z,60.10
2023-03-27T03:20:42.806Z,51.88
2023-03-27T03:21:42.796Z,42.22
2023-03-27T03:22:42.759Z,60.42
2023-03-27T03:23:42.744Z,62.20
2023-03-27T03:24:43.800Z,54.79
2023-03-27T03:25:42.721Z,43.83
2023-03-27T03:26:42.724Z,57.52
2023-03-27T03:27:42.700Z,64.29
2023-03-27T03:28:42.690Z,60.42
2023-03-27T03:29:43.678Z,63.16
2023-03-27T03:30:42.689Z,61.71
2023-03-27T03:31:42.740Z,58.33
2023-03-27T03:32:42.673Z,66.87
2023-03-27T03:33:42.635Z,58.17
2023-03-27T03:34:43.806Z,59.78
2023-03-27T03:35:43.866Z,59.46
2023-03-27T03:36:43.814Z,61.55
2023-03-27T03:37:43.808Z,62.68
2023-03-27T03:38:43.833Z,60.75
2023-03-27T03:39:43.798Z,43.99
2023-03-27T03:40:43.730Z,43.67
2023-03-27T03:41:43.787Z,58.97
2023-03-27T03:42:43.711Z,58.65
2023-03-27T03:43:43.753Z,58.33
2023-03-27T03:44:43.706Z,61.55
2023-03-27T03:45:43.723Z,58.17
2023-03-27T03:46:43.736Z,44.31
2023-03-27T03:47:43.748Z,59.14
2023-03-27T03:48:43.704Z,57.85
2023-03-27T03:49:43.689Z,42.86
2023-03-27T03:50:43.704Z,45.44
2023-03-27T03:51:43.658Z,56.56
2023-03-27T03:52:43.648Z,62.36
2023-03-27T03:53:43.678Z,61.55
2023-03-27T03:54:44.971Z,59.78
2023-03-27T03:55:43.640Z,45.44
2023-03-27T03:56:43.653Z,48.18
2023-03-27T03:57:43.557Z,66.06
2023-03-27T03:58:43.583Z,41.57
2023-03-27T03:59:43.556Z,42.86
2023-03-27T04:00:43.585Z,60.42
2023-03-27T04:01:43.593Z,48.82
2023-03-27T04:02:43.659Z,62.36
2023-03-27T04:03:43.615Z,62.04
2023-03-27T04:04:45.421Z,50.92
2023-03-27T04:05:43.519Z,45.28
2023-03-27T04:06:43.527Z,42.38
2023-03-27T04:07:43.494Z,42.86
2023-03-27T04:08:43.530Z,61.39
2023-03-27T04:09:43.472Z,59.94
2023-03-27T04:10:43.448Z,60.42
2023-03-27T04:11:43.501Z,60.10
2023-03-27T04:12:43.463Z,57.20
2023-03-27T04:13:43.404Z,48.50
2023-03-27T04:14:43.408Z,62.52
2023-03-27T04:15:43.491Z,62.68
2023-03-27T04:16:43.440Z,59.30
2023-03-27T04:17:43.478Z,62.84
2023-03-27T04:18:43.507Z,58.97
2023-03-27T04:19:43.446Z,64.13
2023-03-27T04:20:43.358Z,58.65
2023-03-27T04:21:43.392Z,60.75
2023-03-27T04:22:43.368Z,67.51
2023-03-27T04:23:43.370Z,67.03
2023-03-27T04:24:43.328Z,68.16
2023-03-27T04:25:43.382Z,67.19
2023-03-27T04:26:43.346Z,68.32
2023-03-27T04:27:43.302Z,68.96
2023-03-27T04:28:43.282Z,66.06
2023-03-27T04:29:43.340Z,68.16
2023-03-27T04:30:43.313Z,64.78
2023-03-27T04:31:43.303Z,65.10
2023-03-27T04:32:44.289Z,60.59
2023-03-27T04:33:43.233Z,66.87
2023-03-27T04:34:43.263Z,59.94
2023-03-27T04:35:43.228Z,63.16
2023-03-27T04:36:43.186Z,64.61
2023-03-27T04:37:43.229Z,63.49
2023-03-27T04:38:43.196Z,63.16
2023-03-27T04:39:43.222Z,65.10
2023-03-27T04:40:43.188Z,61.71
2023-03-27T04:41:43.150Z,60.26
2023-03-27T04:42:43.153Z,62.68
2023-03-27T04:43:43.161Z,52.37
2023-03-27T04:44:43.123Z,62.84
2023-03-27T04:45:43.116Z,61.39
2023-03-27T04:46:43.195Z,65.58
2023-03-27T04:47:43.128Z,60.75
2023-03-27T04:48:43.099Z,46.57
2023-03-27T04:49:43.082Z,60.75
2023-03-27T04:50:43.100Z,61.23
2023-03-27T04:51:43.099Z,64.29
2023-03-27T04:52:43.104Z,55.59
2023-03-27T04:53:43.102Z,61.23
2023-03-27T04:54:43.053Z,62.68
2023-03-27T04:55:43.063Z,48.98
2023-03-27T04:56:43.042Z,65.10
2023-03-27T04:57:43.020Z,59.94
2023-03-27T04:58:43.042Z,56.88
2023-03-27T04:59:43.039Z,64.29
2023-03-27T05:00:43.165Z,61.39
2023-03-27T05:01:43.051Z,66.55
2023-03-27T05:02:43.070Z,49.47
2023-03-27T05:03:43.031Z,59.78
2023-03-27T05:04:43.016Z,62.36
2023-03-27T05:05:42.963Z,46.25
2023-03-27T05:06:42.943Z,63.97
2023-03-27T05:07:42.912Z,62.36
2023-03-27T05:08:42.939Z,60.59
2023-03-27T05:09:42.893Z,62.04
2023-03-27T05:10:42.869Z,63.65
2023-03-27T05:11:42.886Z,61.55
2023-03-27T05:12:42.910Z,66.87
2023-03-27T05:13:42.877Z,66.06
2023-03-27T05:14:42.857Z,57.69
2023-03-27T05:15:42.826Z,61.23
2023-03-27T05:16:42.866Z,63.00
2023-03-27T05:17:42.862Z,62.68
2023-03-27T05:18:42.859Z,61.23
2023-03-27T05:19:42.813Z,61.71
2023-03-27T05:20:42.789Z,67.84
2023-03-27T05:21:42.757Z,63.81
2023-03-27T05:22:42.785Z,65.58
2023-03-27T05:23:42.791Z,64.61
2023-03-27T05:24:42.738Z,65.58
2023-03-27T05:25:59.311Z,62.36
2023-03-27T05:26:43.752Z,64.13
2023-03-27T05:27:42.705Z,66.23
2023-03-27T05:28:43.623Z,66.87
2023-03-27T05:29:47.010Z,62.20
2023-03-27T05:30:42.740Z,60.26
2023-03-27T05:31:42.649Z,61.71
2023-03-27T05:32:42.742Z,65.90
2023-03-27T05:33:42.681Z,64.29
2023-03-27T05:34:43.642Z,63.00
2023-03-27T05:35:42.872Z,63.97
2023-03-27T05:36:42.598Z,61.71
2023-03-27T05:37:42.618Z,53.66
2023-03-27T05:38:42.604Z,64.29
2023-03-27T05:39:42.576Z,65.58
2023-03-27T05:40:42.594Z,59.78
2023-03-27T05:41:42.568Z,62.20
2023-03-27T05:42:42.559Z,63.65
2023-03-27T05:43:42.569Z,63.00
2023-03-27T05:44:42.592Z,63.16
2023-03-27T05:45:42.552Z,62.20
2023-03-27T05:46:42.762Z,61.87
2023-03-27T05:47:42.704Z,60.91
2023-03-27T05:48:42.612Z,65.26
2023-03-27T05:49:42.600Z,61.39
2023-03-27T05:50:42.560Z,64.29
2023-03-27T05:51:46.761Z,67.35
2023-03-27T05:52:42.591Z,70.42
2023-03-27T05:53:42.529Z,68.64
2023-03-27T05:54:42.463Z,64.13
2023-03-27T05:55:42.515Z,61.71
2023-03-27T05:56:42.494Z,65.74
2023-03-27T05:57:42.446Z,65.10
2023-03-27T05:58:42.477Z,64.78
2023-03-27T05:59:42.485Z,65.42
2023-03-27T06:00:42.385Z,72.19
2023-03-27T06:01:42.431Z,59.94
2023-03-27T06:02:42.486Z,63.16
2023-03-27T06:03:42.615Z,63.16
2023-03-27T06:04:42.430Z,64.61
2023-03-27T06:05:42.434Z,48.18
2023-03-27T06:06:42.402Z,63.00
2023-03-27T06:07:43.521Z,62.68
2023-03-27T06:08:50.711Z,60.91
2023-03-27T06:09:43.370Z,62.04
2023-03-27T06:10:42.366Z,73.32
2023-03-27T06:44:16.113Z,62.04
2023-03-27T06:45:15.173Z,73.96
2023-03-27T07:04:38.563Z,60.59
2023-03-27T07:05:37.002Z,63.16
2023-03-27T07:06:47.309Z,62.84
2023-03-27T07:07:38.182Z,45.12
2023-03-27T07:08:36.950Z,53.82
2023-03-27T07:09:39.481Z,59.78
2023-03-27T07:10:36.921Z,59.14
2023-03-27T07:11:36.876Z,62.20
2023-03-27T07:12:36.870Z,58.17
2023-03-27T07:13:36.861Z,59.78
2023-03-27T07:14:36.861Z,58.01
2023-03-27T07:15:36.841Z,62.20
2023-03-27T07:16:36.880Z,54.79
2023-03-27T07:17:47.911Z,61.39
2023-03-27T07:18:37.847Z,66.55
2023-03-27T07:19:36.888Z,63.97
2023-03-27T07:20:36.785Z,60.75
2023-03-27T07:21:36.775Z,60.10
2023-03-27T07:22:36.796Z,61.23
2023-03-27T07:23:36.768Z,58.17
2023-03-27T07:24:36.756Z,60.42
2023-03-27T07:25:36.723Z,60.75
2023-03-27T07:26:36.719Z,69.29
2023-03-27T07:27:36.699Z,53.98
2023-03-27T07:28:36.743Z,56.40
2023-03-27T07:29:36.708Z,58.33
2023-03-27T07:30:36.683Z,51.40
2023-03-27T07:31:51.656Z,65.74
2023-03-27T07:37:34.599Z,61.39
2023-03-27T07:38:34.209Z,45.28
2023-03-27T07:42:29.719Z,56.72
2023-03-27T07:48:15.806Z,62.20
2023-03-27T07:49:15.667Z,63.97
2023-03-27T07:50:14.032Z,60.59
2023-03-27T07:51:14.454Z,63.16
2023-03-27T07:52:16.303Z,60.42
2023-03-27T07:53:34.042Z,55.91
2023-03-27T07:54:14.860Z,48.18
2023-03-27T07:55:13.888Z,63.00
2023-03-27T07:56:13.898Z,61.07
2023-03-27T07:57:13.899Z,56.40
2023-03-27T07:58:13.873Z,60.75
2023-03-27T07:59:13.809Z,46.73
2023-03-27T08:00:13.805Z,61.07
2023-03-27T08:01:13.787Z,60.42
2023-03-27T08:02:13.770Z,58.65
2023-03-27T08:03:13.949Z,60.59
2023-03-27T08:04:13.868Z,66.23
2023-03-27T08:05:13.893Z,62.04
2023-03-27T08:06:13.723Z,58.33
2023-03-27T08:07:13.759Z,60.91
2023-03-27T08:08:13.705Z,60.10
2023-03-27T08:09:13.705Z,61.39
2023-03-27T08:10:13.707Z,62.84
2023-03-27T08:11:27.472Z,63.49
2023-03-27T08:12:14.667Z,60.26
2023-03-27T08:13:13.660Z,59.94
2023-03-27T08:14:13.692Z,57.20
2023-03-27T08:15:13.667Z,63.97
2023-03-27T08:16:13.628Z,61.87
2023-03-27T08:17:16.700Z,62.36
2023-03-27T08:18:13.634Z,60.26
2023-03-27T08:19:13.593Z,63.81
2023-03-27T08:20:13.585Z,62.68
2023-03-27T08:21:13.565Z,62.20
2023-03-27T08:22:13.544Z,44.96
2023-03-27T08:23:13.540Z,61.23
2023-03-27T08:24:13.525Z,60.42
2023-03-27T08:25:13.524Z,61.71
2023-03-27T08:26:13.509Z,63.00
2023-03-27T08:27:13.503Z,62.36
2023-03-27T08:28:13.483Z,62.52
2023-03-27T08:29:13.476Z,58.17
2023-03-27T08:30:14.560Z,63.16
2023-03-27T08:31:13.475Z,65.10
2023-03-27T08:32:13.434Z,64.45
2023-03-27T08:33:13.429Z,70.90
2023-03-27T08:34:14.385Z,79.44
2023-03-27T08:35:13.425Z,57.52
2023-03-27T08:36:13.453Z,59.78
2023-03-27T08:37:13.381Z,56.56
2023-03-27T08:38:25.814Z,56.56
2023-03-27T08:39:14.473Z,68.80
2023-03-27T08:40:13.382Z,56.24
2023-03-27T08:41:13.344Z,52.05
2023-03-27T08:42:13.345Z,44.31
2023-03-27T08:43:13.318Z,60.91
2023-03-27T08:44:13.310Z,48.18
2023-03-27T08:45:13.360Z,62.68
2023-03-27T08:46:13.379Z,56.88
2023-03-27T08:47:13.302Z,58.81
2023-03-27T08:48:13.286Z,65.10
2023-03-27T08:49:13.284Z,58.65
2023-03-27T08:50:13.275Z,56.72
2023-03-27T08:51:13.236Z,59.14
2023-03-27T08:52:13.254Z,59.62
2023-03-27T08:53:13.228Z,60.75
2023-03-27T08:54:13.199Z,61.07
2023-03-27T08:55:13.289Z,57.69
2023-03-27T08:56:13.248Z,62.20
2023-03-27T08:57:13.252Z,62.68
2023-03-27T08:58:13.184Z,67.03
2023-03-27T08:59:14.144Z,58.81
2023-03-27T09:00:13.174Z,59.78
2023-03-27T09:01:13.126Z,56.88
2023-03-27T09:02:13.221Z,63.49
2023-03-27T09:03:13.170Z,54.95
2023-03-27T09:04:13.100Z,65.58
2023-03-27T09:05:13.122Z,59.30
2023-03-27T09:06:13.091Z,60.10
2023-03-27T09:07:13.106Z,61.07
2023-03-27T09:08:13.053Z,60.26
2023-03-27T09:09:13.046Z,62.36
2023-03-27T09:10:13.023Z,62.36
2023-03-27T09:11:13.037Z,63.49
2023-03-27T09:12:13.014Z,58.65
2023-03-27T09:13:12.987Z,51.24
2023-03-27T09:14:12.971Z,60.42
2023-03-27T09:15:12.974Z,60.10
2023-03-27T09:16:12.984Z,54.62
2023-03-27T09:17:12.956Z,56.56
2023-03-27T09:18:12.945Z,60.10
2023-03-27T09:19:12.933Z,60.75
2023-03-27T09:20:12.917Z,61.23
2023-03-27T09:21:12.914Z,61.23
2023-03-27T09:22:12.885Z,58.65
2023-03-27T09:23:12.884Z,60.26
2023-03-27T09:24:12.879Z,59.30
2023-03-27T09:25:12.864Z,61.87
2023-03-27T09:26:12.865Z,59.30
2023-03-27T09:27:12.846Z,58.49
2023-03-27T09:28:12.829Z,60.75
2023-03-27T09:29:12.814Z,53.50
2023-03-27T09:30:13.803Z,60.10
2023-03-27T09:31:12.949Z,58.49
2023-03-27T09:32:12.846Z,60.91
2023-03-27T09:33:13.993Z,55.59
2023-03-27T09:34:13.942Z,62.20
2023-03-27T09:35:13.912Z,62.20
2023-03-27T09:36:13.914Z,60.75
2023-03-27T09:37:13.905Z,59.78
2023-03-27T09:38:13.900Z,60.91
2023-03-27T09:39:13.936Z,59.30
2023-03-27T09:40:13.912Z,63.33
2023-03-27T09:41:13.896Z,58.97
2023-03-27T09:42:13.926Z,56.40
2023-03-27T09:43:13.851Z,56.40
2023-03-27T09:44:13.856Z,57.20
2023-03-27T09:45:13.842Z,46.73
2023-03-27T09:46:13.905Z,61.87
2023-03-27T09:47:13.825Z,56.72
2023-03-27T09:48:13.820Z,47.86
2023-03-27T09:49:13.796Z,49.47
2023-03-27T09:50:13.794Z,61.23
2023-03-27T09:51:13.787Z,61.23
2023-03-27T09:52:13.815Z,60.42
2023-03-27T09:53:13.749Z,58.97
2023-03-27T09:54:13.763Z,59.78
2023-03-27T09:55:13.801Z,51.40
2023-03-27T09:56:13.948Z,59.46
2023-03-27T09:57:13.753Z,61.87
2023-03-27T09:58:13.692Z,56.72
2023-03-27T09:59:13.718Z,55.11
2023-03-27T10:00:13.682Z,60.75
2023-03-27T10:01:13.770Z,61.39
2023-03-27T10:02:13.643Z,61.39
2023-03-27T10:03:13.738Z,60.42
2023-03-27T10:04:13.703Z,61.23
2023-03-27T10:05:13.693Z,59.78
2023-03-27T10:06:13.634Z,60.75
2023-03-27T10:07:13.622Z,69.93
2023-03-27T10:08:13.590Z,59.94
2023-03-27T10:09:13.616Z,60.26
2023-03-27T10:10:13.617Z,63.16
2023-03-27T10:11:13.644Z,63.97
2023-03-27T10:12:13.560Z,60.42
2023-03-27T10:13:13.538Z,60.91
2023-03-27T10:14:13.490Z,62.04
2023-03-27T10:15:13.492Z,53.33
2023-03-27T10:16:13.524Z,51.56
2023-03-27T10:17:13.468Z,62.36
2023-03-27T10:18:13.506Z,55.91
2023-03-27T10:19:13.436Z,58.97
2023-03-27T10:20:13.436Z,59.62
2023-03-27T10:21:13.435Z,58.65
2023-03-27T10:22:14.482Z,65.10
2023-03-27T10:23:13.438Z,61.55
2023-03-27T10:24:13.387Z,60.59
2023-03-27T10:25:13.380Z,43.02
2023-03-27T10:26:13.377Z,57.52
2023-03-27T10:27:13.375Z,49.95
2023-03-27T10:28:13.363Z,56.72
2023-03-27T10:29:13.333Z,55.11
2023-03-27T10:30:13.457Z,60.26
2023-03-27T10:31:13.338Z,60.10
2023-03-27T10:32:13.360Z,58.17
2023-03-27T10:33:13.370Z,61.39
2023-03-27T10:34:13.283Z,64.61
2023-03-27T10:35:13.272Z,59.78
2023-03-27T10:36:13.266Z,58.81
2023-03-27T10:37:13.266Z,63.81
2023-03-27T10:38:13.238Z,63.33
2023-03-27T10:39:13.227Z,59.14
2023-03-27T10:40:14.287Z,61.39
2023-03-27T10:41:13.214Z,60.10
2023-03-27T10:42:13.216Z,59.14
2023-03-27T10:43:13.192Z,63.97
2023-03-27T10:44:13.196Z,62.20
2023-03-27T10:45:13.194Z,61.07
2023-03-27T10:46:13.245Z,62.84
2023-03-27T10:47:13.197Z,61.39
2023-03-27T10:48:13.160Z,61.39
2023-03-27T10:49:14.127Z,60.10
2023-03-27T10:50:13.300Z,62.36
2023-03-27T10:51:13.149Z,57.04
2023-03-27T10:52:13.174Z,58.81
2023-03-27T10:53:13.164Z,61.23
2023-03-27T10:54:13.168Z,60.26
2023-03-27T10:55:14.104Z,60.26
2023-03-27T10:56:13.116Z,58.81
2023-03-27T10:57:13.137Z,64.61
2023-03-27T10:58:13.095Z,65.42
2023-03-27T10:59:13.071Z,59.94
2023-03-27T11:00:13.064Z,58.01
2023-03-27T11:01:13.081Z,61.39
2023-03-27T11:02:13.045Z,65.74
2023-03-27T11:03:13.066Z,62.84
2023-03-27T11:04:13.032Z,59.30
2023-03-27T11:05:13.035Z,60.75
2023-03-27T11:06:12.993Z,61.55
2023-03-27T11:07:14.348Z,64.94
2023-03-27T11:08:12.983Z,57.85
2023-03-27T11:09:13.028Z,59.94
2023-03-27T11:10:13.046Z,61.55
2023-03-27T11:11:13.010Z,58.17
2023-03-27T11:12:12.969Z,59.78
2023-03-27T11:13:12.985Z,47.53
2023-03-27T11:14:13.062Z,59.14
2023-03-27T11:15:12.925Z,57.85
2023-03-27T11:16:12.954Z,61.55
2023-03-27T11:17:12.924Z,59.62
2023-03-27T11:18:12.978Z,58.97
2023-03-27T11:19:12.890Z,50.76
2023-03-27T11:20:12.955Z,61.87
2023-03-27T11:21:12.982Z,62.20
2023-03-27T11:22:12.909Z,59.78
2023-03-27T11:23:12.859Z,60.59
2023-03-27T11:24:12.848Z,48.34
2023-03-27T11:25:12.848Z,59.62
2023-03-27T11:26:12.857Z,71.54
2023-03-27T11:27:14.452Z,59.94
2023-03-27T11:28:13.808Z,60.91
2023-03-27T11:29:12.820Z,62.36
2023-03-27T11:30:12.858Z,58.97
2023-03-27T11:31:13.231Z,62.04
2023-03-27T11:32:12.794Z,60.42
2023-03-27T11:33:12.774Z,57.20
2023-03-27T11:34:12.742Z,59.78
2023-03-27T11:35:12.721Z,64.29
2023-03-27T11:36:12.859Z,45.76
2023-03-27T11:37:12.770Z,57.85
2023-03-27T11:38:12.757Z,59.30
2023-03-27T11:39:12.716Z,56.72
2023-03-27T11:40:12.721Z,56.24
2023-03-27T11:41:14.681Z,55.75
2023-03-27T11:42:13.663Z,58.81
2023-03-27T11:43:12.752Z,57.04
2023-03-27T11:44:12.663Z,56.24
2023-03-27T11:45:12.677Z,51.24
2023-03-27T11:46:12.657Z,61.71
2023-03-27T11:47:12.667Z,61.07
2023-03-27T11:48:12.713Z,55.91
2023-03-27T11:49:12.633Z,53.01
2023-03-27T11:50:12.617Z,61.71
2023-03-27T11:51:12.598Z,55.27
2023-03-27T11:52:12.559Z,59.46
2023-03-27T11:53:12.583Z,62.84
2023-03-27T11:54:12.554Z,57.20
2023-03-27T11:55:12.547Z,57.52
2023-03-27T11:56:12.547Z,61.23
2023-03-27T11:57:12.585Z,62.52
2023-03-27T11:58:12.555Z,59.94
2023-03-27T11:59:12.516Z,59.14
2023-03-27T12:00:12.514Z,61.55
2023-03-27T12:01:12.490Z,54.14
2023-03-27T12:02:12.565Z,60.75
2023-03-27T12:03:12.700Z,58.01
2023-03-27T12:04:12.489Z,59.78
2023-03-27T12:05:12.457Z,61.87
2023-03-27T12:06:12.422Z,61.55
2023-03-27T12:07:12.647Z,59.30
2023-03-27T12:08:12.418Z,56.07
2023-03-27T12:09:12.384Z,60.10
2023-03-27T12:10:12.425Z,58.33
2023-03-27T12:11:12.427Z,55.91
2023-03-27T12:12:12.396Z,47.53
2023-03-27T12:13:12.387Z,60.10
2023-03-27T12:14:18.044Z,61.39
2023-03-27T12:15:14.340Z,58.97
2023-03-27T12:16:12.466Z,57.36
2023-03-27T12:17:12.290Z,61.39
2023-03-27T12:18:12.323Z,58.33
2023-03-27T12:20:13.310Z,57.04
2023-03-27T12:21:12.240Z,60.75
2023-03-27T12:22:22.780Z,57.85
2023-03-27T12:23:14.324Z,60.59
2023-03-27T12:24:12.271Z,60.42
2023-03-27T12:25:12.226Z,57.85
2023-03-27T12:26:12.232Z,58.65
2023-03-27T12:27:12.226Z,58.17
2023-03-27T12:28:22.061Z,61.39
2023-03-27T12:29:23.033Z,58.65
2023-03-27T12:30:13.205Z,60.42
2023-03-27T12:31:12.168Z,55.91
2023-03-27T12:32:12.270Z,59.30
2023-03-27T12:33:12.149Z,59.78
2023-03-27T12:34:12.123Z,71.22
2023-03-27T12:35:12.080Z,62.04
2023-03-27T12:36:12.142Z,56.07
2023-03-27T12:37:12.073Z,61.71
2023-03-27T12:38:12.056Z,60.10
2023-03-27T12:39:12.053Z,59.30
2023-03-27T12:40:12.027Z,58.49
2023-03-27T12:41:12.023Z,46.73
2023-03-27T12:42:12.008Z,59.78
2023-03-27T12:43:11.999Z,61.55
2023-03-27T12:44:12.002Z,56.88
2023-03-27T12:45:11.998Z,53.66
2023-03-27T12:46:11.999Z,56.72
2023-03-27T12:47:11.961Z,58.33
2023-03-27T12:48:11.960Z,61.23
2023-03-27T12:49:11.957Z,60.91
2023-03-27T12:50:11.931Z,61.07
2023-03-27T12:51:12.922Z,62.84
2023-03-27T12:52:13.504Z,64.45
2023-03-27T12:53:11.908Z,58.01
2023-03-27T12:54:11.904Z,62.04
2023-03-27T12:55:11.892Z,61.39
2023-03-27T12:56:11.961Z,60.42
2023-03-27T12:57:11.927Z,61.07
2023-03-27T12:58:11.890Z,60.26
2023-03-27T12:59:11.849Z,67.03
2023-03-27T13:00:11.836Z,61.23
2023-03-27T13:01:11.839Z,58.97
2023-03-27T13:02:11.921Z,59.94
2023-03-27T13:03:11.906Z,58.33
2023-03-27T13:04:11.803Z,58.97
2023-03-27T13:05:24.157Z,59.14
2023-03-27T13:08:05.893Z,0.00
2023-03-27T13:09:05.866Z,58.01
2023-03-27T13:10:05.866Z,57.20
2023-03-27T13:11:05.838Z,64.61
2023-03-27T13:12:05.840Z,59.14
2023-03-27T13:13:05.830Z,47.53
2023-03-27T13:14:05.801Z,62.52
2023-03-27T13:15:05.841Z,61.87
2023-03-27T13:16:05.844Z,58.81
2023-03-27T13:17:05.812Z,59.30
2023-03-27T13:18:05.852Z,57.85
2023-03-27T13:19:05.770Z,56.72
2023-03-27T13:20:05.847Z,60.91
2023-03-27T13:21:05.717Z,60.10
2023-03-27T13:22:05.726Z,58.97
2023-03-27T13:23:05.724Z,58.33
2023-03-27T13:26:31.683Z,58.81
2023-03-27T13:27:31.672Z,56.72
2023-03-27T13:28:31.662Z,59.46
2023-03-27T13:29:31.665Z,63.33
2023-03-27T13:30:31.645Z,59.30
2023-03-27T13:31:31.695Z,58.33
2023-03-27T13:32:31.828Z,61.71
2023-03-27T13:33:31.655Z,61.23
2023-03-27T13:34:31.617Z,67.51
2023-03-27T13:35:31.615Z,46.08
2023-03-27T13:36:31.576Z,58.49
2023-03-27T13:37:36.668Z,60.91
2023-03-27T13:38:32.726Z,55.59
2023-03-27T13:47:41.809Z,61.39
2023-03-27T13:51:09.305Z,61.23
2023-03-27T13:52:08.284Z,70.09
2023-03-27T13:53:08.274Z,61.55
2023-03-27T13:54:22.930Z,61.07
2023-03-27T13:55:08.265Z,57.52
2023-03-27T13:56:08.236Z,57.52
2023-03-27T13:57:08.253Z,70.58
2023-03-27T13:58:08.219Z,60.10
2023-03-27T13:59:08.211Z,65.10
2023-03-27T14:00:08.220Z,50.92
2023-03-27T14:01:08.191Z,58.01
2023-03-27T14:02:08.233Z,63.33
2023-03-27T14:03:08.276Z,61.39
2023-03-27T14:04:08.203Z,60.26
2023-03-27T14:05:08.166Z,54.62
2023-03-27T14:06:08.134Z,63.00
2023-03-27T14:07:08.129Z,75.09
2023-03-27T14:08:08.115Z,63.97
2023-03-27T14:09:08.221Z,71.22
2023-03-27T14:10:08.106Z,59.78
2023-03-27T14:11:09.060Z,61.07
2023-03-27T14:12:08.108Z,59.30